createdAt,value
2018-07-05T00:00:02.023Z,60.80
2018-07-05T00:00:46.808Z,60.60
2018-07-05T00:01:31.579Z,60.70
2018-07-05T00:02:17.020Z,60.50
2018-07-05T00:03:01.624Z,60.70
2018-07-05T00:03:46.284Z,60.70
2018-07-05T00:04:30.959Z,60.70
2018-07-05T00:05:15.652Z,60.60
2018-07-05T00:06:00.283Z,60.60
2018-07-05T00:06:45.035Z,60.70
2018-07-05T00:07:29.658Z,60.80
2018-07-05T00:08:14.233Z,60.90
2018-07-05T00:08:59.180Z,61.10
2018-07-05T00:09:43.895Z,61.20
2018-07-05T00:11:07.476Z,60.80
2018-07-05T00:12:31.881Z,61.00
2018-07-05T00:13:16.659Z,61.00
2018-07-05T00:14:01.263Z,60.80
2018-07-05T00:14:45.901Z,61.00
2018-07-05T00:16:09.894Z,61.00
2018-07-05T00:16:54.482Z,60.90
2018-07-05T00:17:39.143Z,61.00
2018-07-05T00:18:23.659Z,60.90
2018-07-05T00:19:08.187Z,60.90
2018-07-05T00:19:52.714Z,60.80
2018-07-05T00:20:37.450Z,60.80
2018-07-05T00:21:22.139Z,60.90
2018-07-05T00:22:06.965Z,61.00
2018-07-05T00:22:51.583Z,61.80
2018-07-05T00:24:54.203Z,61.20
2018-07-05T00:25:39.059Z,61.20
2018-07-05T00:26:24.360Z,61.30
2018-07-05T00:27:09.169Z,61.20
2018-07-05T00:27:54.070Z,61.30
2018-07-05T00:28:39.094Z,61.10
2018-07-05T00:29:23.752Z,61.30
2018-07-05T00:30:08.361Z,61.40
2018-07-05T00:30:53.136Z,61.20
2018-07-05T00:31:37.773Z,61.20
2018-07-05T00:32:22.664Z,61.20
2018-07-05T00:33:46.541Z,61.20
2018-07-05T00:35:10.081Z,61.40
2018-07-05T00:35:55.475Z,61.30
2018-07-05T00:36:40.147Z,61.40
2018-07-05T00:37:24.738Z,61.10
2018-07-05T00:38:09.375Z,61.10
2018-07-05T00:38:54.013Z,61.10
2018-07-05T00:39:38.645Z,61.10
2018-07-05T00:40:23.533Z,61.00
2018-07-05T00:41:08.537Z,60.90
2018-07-05T00:41:53.369Z,60.90
2018-07-05T00:42:38.281Z,61.00
2018-07-05T00:43:22.992Z,61.00
2018-07-05T00:44:08.606Z,61.00
2018-07-05T00:44:53.528Z,61.00
2018-07-05T00:45:38.244Z,61.10
2018-07-05T00:46:23.342Z,61.20
2018-07-05T00:47:08.135Z,61.40
2018-07-05T00:47:52.782Z,61.50
2018-07-05T00:48:37.325Z,61.60
2018-07-05T00:49:22.125Z,61.60
2018-07-05T00:50:07.583Z,61.50
2018-07-05T00:50:52.342Z,61.50
2018-07-05T00:51:37.057Z,61.40
2018-07-05T00:52:22.191Z,61.40
2018-07-05T00:53:07.102Z,61.30
2018-07-05T00:53:52.042Z,61.40
2018-07-05T00:54:36.795Z,61.40
2018-07-05T00:55:21.623Z,61.50
2018-07-05T00:56:06.385Z,61.50
2018-07-05T00:56:51.039Z,61.60
2018-07-05T00:57:35.667Z,61.70
2018-07-05T00:58:20.266Z,61.70
2018-07-05T00:59:04.916Z,61.60
2018-07-05T00:59:49.671Z,61.60
2018-07-05T01:00:34.577Z,61.60
2018-07-05T01:01:19.990Z,61.70
2018-07-05T01:02:04.511Z,61.70
2018-07-05T01:02:49.176Z,61.80
2018-07-05T01:03:34.396Z,62.00
2018-07-05T01:04:19.071Z,62.10
2018-07-05T01:05:03.945Z,62.20
2018-07-05T01:05:48.685Z,62.30
2018-07-05T01:06:33.272Z,62.30
2018-07-05T01:07:17.765Z,62.40
2018-07-05T01:08:02.396Z,62.50
2018-07-05T01:08:47.177Z,62.60
2018-07-05T01:09:31.964Z,62.60
2018-07-05T01:10:16.584Z,62.70
2018-07-05T01:11:01.348Z,62.80
2018-07-05T01:11:46.226Z,62.70
2018-07-05T01:12:30.850Z,62.80
2018-07-05T01:13:15.480Z,62.90
2018-07-05T01:14:00.123Z,62.80
2018-07-05T01:14:44.815Z,62.60
2018-07-05T01:15:29.470Z,62.70
2018-07-05T01:16:14.185Z,62.80
2018-07-05T01:16:59.056Z,62.70
2018-07-05T01:17:43.849Z,62.40
2018-07-05T01:18:28.583Z,62.40
2018-07-05T01:19:13.285Z,62.30
2018-07-05T01:19:57.922Z,62.30
2018-07-05T01:20:42.832Z,62.40
2018-07-05T01:21:27.485Z,63.10
2018-07-05T01:22:12.209Z,62.50
2018-07-05T01:22:56.900Z,62.60
2018-07-05T01:23:41.399Z,62.60
2018-07-05T01:24:25.963Z,62.60
2018-07-05T01:25:10.825Z,62.50
2018-07-05T01:25:55.704Z,62.50
2018-07-05T01:26:40.449Z,62.40
2018-07-05T01:27:25.836Z,62.40
2018-07-05T01:28:10.422Z,62.40
2018-07-05T01:28:55.115Z,62.40
2018-07-05T01:29:39.792Z,62.50
2018-07-05T01:30:24.543Z,62.50
2018-07-05T01:31:09.512Z,62.40
2018-07-05T01:31:54.550Z,62.20
2018-07-05T01:32:39.212Z,62.40
2018-07-05T01:33:24.164Z,62.20
2018-07-05T01:34:08.848Z,62.20
2018-07-05T01:34:53.419Z,62.20
2018-07-05T01:35:38.543Z,62.50
2018-07-05T01:36:23.272Z,62.30
2018-07-05T01:37:09.044Z,62.40
2018-07-05T01:37:54.081Z,62.40
2018-07-05T01:38:39.063Z,62.40
2018-07-05T01:39:23.759Z,62.30
2018-07-05T01:40:47.261Z,62.50
2018-07-05T01:41:32.103Z,62.30
2018-07-05T01:42:16.838Z,62.30
2018-07-05T01:43:01.661Z,62.50
2018-07-05T01:43:46.328Z,62.70
2018-07-05T01:44:30.877Z,63.50
2018-07-05T01:45:15.723Z,62.70
2018-07-05T01:46:01.228Z,62.80
2018-07-05T01:46:46.099Z,62.80
2018-07-05T01:47:30.656Z,62.90
2018-07-05T01:48:15.395Z,63.00
2018-07-05T01:49:00.000Z,63.00
2018-07-05T01:49:44.648Z,63.00
2018-07-05T01:50:29.369Z,62.90
2018-07-05T01:51:14.131Z,62.90
2018-07-05T01:51:58.856Z,62.90
2018-07-05T01:52:43.504Z,62.80
2018-07-05T01:53:28.127Z,62.80
2018-07-05T01:54:12.826Z,62.80
2018-07-05T01:55:37.256Z,62.80
2018-07-05T01:56:22.057Z,62.90
2018-07-05T01:57:06.795Z,63.00
2018-07-05T01:57:51.315Z,63.20
2018-07-05T01:58:36.349Z,63.40
2018-07-05T01:59:20.930Z,63.50
2018-07-05T02:00:05.963Z,63.40
2018-07-05T02:00:50.585Z,63.50
2018-07-05T02:01:35.923Z,64.20
2018-07-05T02:02:20.601Z,63.50
2018-07-05T02:03:05.212Z,63.70
2018-07-05T02:03:49.741Z,63.70
2018-07-05T02:05:13.259Z,63.70
2018-07-05T02:05:57.804Z,63.60
2018-07-05T02:06:42.534Z,63.60
2018-07-05T02:07:27.196Z,63.20
2018-07-05T02:08:12.052Z,63.10
2018-07-05T02:08:56.967Z,63.80
2018-07-05T02:09:41.728Z,63.10
2018-07-05T02:10:26.350Z,63.30
2018-07-05T02:11:11.649Z,63.30
2018-07-05T02:11:56.288Z,63.40
2018-07-05T02:12:41.042Z,63.50
2018-07-05T02:13:25.683Z,63.40
2018-07-05T02:14:10.315Z,63.30
2018-07-05T02:14:54.926Z,63.30
2018-07-05T02:15:39.470Z,63.20
2018-07-05T02:16:24.078Z,63.30
2018-07-05T02:17:08.688Z,63.20
2018-07-05T02:17:53.309Z,63.20
2018-07-05T02:18:37.817Z,63.30
2018-07-05T02:19:22.925Z,63.10
2018-07-05T02:20:07.607Z,63.00
2018-07-05T02:20:52.900Z,63.10
2018-07-05T02:21:37.566Z,63.00
2018-07-05T02:22:22.952Z,62.90
2018-07-05T02:23:07.717Z,62.90
2018-07-05T02:23:52.697Z,62.80
2018-07-05T02:24:37.385Z,62.70
2018-07-05T02:25:22.060Z,62.50
2018-07-05T02:26:06.581Z,62.60
2018-07-05T02:26:51.484Z,62.70
2018-07-05T02:27:36.270Z,62.70
2018-07-05T02:28:21.089Z,62.80
2018-07-05T02:29:06.011Z,62.70
2018-07-05T02:29:50.864Z,62.90
2018-07-05T02:30:35.987Z,62.90
2018-07-05T02:31:20.615Z,62.90
2018-07-05T02:32:05.155Z,63.10
2018-07-05T02:32:49.861Z,63.20
2018-07-05T02:33:34.618Z,62.90
2018-07-05T02:34:20.171Z,62.80
2018-07-05T02:35:04.893Z,62.80
2018-07-05T02:35:49.717Z,62.40
2018-07-05T02:36:36.065Z,62.40
2018-07-05T02:37:26.146Z,62.80
2018-07-05T02:38:15.996Z,62.70
2018-07-05T02:39:48.932Z,62.10
2018-07-05T02:40:33.524Z,62.00
2018-07-05T02:41:18.295Z,62.00
2018-07-05T02:42:03.279Z,61.90
2018-07-05T02:42:47.874Z,62.00
2018-07-05T02:44:11.368Z,62.20
2018-07-05T02:44:56.072Z,62.30
2018-07-05T02:45:40.848Z,62.40
2018-07-05T02:46:25.785Z,62.50
2018-07-05T02:47:11.004Z,62.50
2018-07-05T02:47:56.210Z,62.70
2018-07-05T02:48:41.837Z,62.80
2018-07-05T02:49:27.421Z,62.80
2018-07-05T02:50:12.270Z,62.50
2018-07-05T02:50:57.159Z,62.40
2018-07-05T02:51:41.848Z,62.30
2018-07-05T02:52:26.505Z,62.40
2018-07-05T02:53:11.213Z,62.50
2018-07-05T02:53:55.884Z,62.50
2018-07-05T02:54:40.568Z,62.50
2018-07-05T02:55:25.842Z,62.40
2018-07-05T02:56:10.575Z,63.10
2018-07-05T02:56:55.527Z,61.50
2018-07-05T02:57:42.090Z,60.80
2018-07-05T02:58:26.661Z,61.40
2018-07-05T02:59:11.608Z,60.80
2018-07-05T02:59:56.955Z,60.40
2018-07-05T03:00:44.819Z,60.40
2018-07-05T03:01:30.544Z,60.10
2018-07-05T03:02:15.228Z,60.00
2018-07-05T03:03:00.446Z,59.90
2018-07-05T03:03:45.030Z,59.70
2018-07-05T03:04:29.894Z,58.60
2018-07-05T03:05:15.259Z,57.20
2018-07-05T03:05:59.895Z,56.00
2018-07-05T03:06:45.268Z,55.40
2018-07-05T03:07:29.762Z,54.90
2018-07-05T03:08:14.525Z,55.30
2018-07-05T03:08:59.387Z,54.00
2018-07-05T03:09:44.080Z,53.10
2018-07-05T03:11:08.731Z,52.00
2018-07-05T03:11:53.412Z,51.50
2018-07-05T03:13:17.447Z,51.20
2018-07-05T03:14:02.727Z,50.90
2018-07-05T03:14:48.364Z,50.90
2018-07-05T03:15:34.301Z,51.40
2018-07-05T03:16:57.690Z,50.30
2018-07-05T03:17:42.377Z,50.30
2018-07-05T03:18:27.040Z,49.60
2018-07-05T03:19:11.865Z,49.60
2018-07-05T03:19:56.704Z,49.30
2018-07-05T03:20:41.911Z,49.30
2018-07-05T03:21:26.485Z,49.00
2018-07-05T03:22:11.376Z,49.10
2018-07-05T03:22:55.943Z,49.10
2018-07-05T03:23:40.580Z,49.30
2018-07-05T03:25:42.777Z,49.30
2018-07-05T03:26:27.390Z,49.30
2018-07-05T03:27:12.033Z,49.40
2018-07-05T03:27:56.774Z,49.40
2018-07-05T03:28:43.279Z,49.40
2018-07-05T03:29:28.456Z,49.50
2018-07-05T03:30:13.100Z,49.50
2018-07-05T03:30:57.857Z,49.50
2018-07-05T03:31:42.530Z,49.50
2018-07-05T03:32:27.395Z,49.70
2018-07-05T03:33:12.412Z,49.90
2018-07-05T03:33:57.164Z,49.70
2018-07-05T03:34:41.809Z,49.80
2018-07-05T03:35:27.456Z,49.70
2018-07-05T03:36:12.267Z,49.60
2018-07-05T03:36:57.059Z,50.40
2018-07-05T03:37:41.857Z,49.60
2018-07-05T03:38:26.666Z,49.70
2018-07-05T03:39:11.178Z,49.70
2018-07-05T03:39:56.699Z,49.80
2018-07-05T03:40:41.921Z,49.70
2018-07-05T03:41:26.568Z,49.60
2018-07-05T03:42:11.310Z,49.70
2018-07-05T03:42:56.108Z,49.60
2018-07-05T03:43:40.814Z,49.70
2018-07-05T03:45:04.412Z,49.30
2018-07-05T03:45:50.019Z,49.30
2018-07-05T03:46:35.151Z,49.30
2018-07-05T03:47:19.807Z,49.00
2018-07-05T03:48:05.133Z,49.20
2018-07-05T03:48:49.946Z,49.40
2018-07-05T03:49:35.471Z,49.20
2018-07-05T03:50:20.137Z,49.40
2018-07-05T03:51:05.000Z,49.30
2018-07-05T03:51:49.549Z,49.30
2018-07-05T03:52:34.337Z,49.30
2018-07-05T03:53:19.049Z,49.30
2018-07-05T03:54:03.689Z,49.10
2018-07-05T03:54:48.412Z,48.90
2018-07-05T03:55:33.014Z,49.20
2018-07-05T03:56:17.680Z,49.00
2018-07-05T03:57:03.074Z,49.10
2018-07-05T03:57:47.722Z,49.10
2018-07-05T03:58:32.288Z,49.10
2018-07-05T03:59:17.027Z,49.30
2018-07-05T04:00:01.852Z,49.30
2018-07-05T04:00:46.456Z,49.40
2018-07-05T04:01:31.101Z,49.50
2018-07-05T04:02:16.454Z,49.60
2018-07-05T04:03:01.033Z,50.00
2018-07-05T04:03:46.151Z,50.20
2018-07-05T04:04:31.249Z,50.40
2018-07-05T04:05:15.779Z,50.30
2018-07-05T04:06:01.200Z,50.40
2018-07-05T04:06:45.976Z,50.10
2018-07-05T04:07:30.523Z,50.10
2018-07-05T04:08:15.186Z,50.20
2018-07-05T04:09:00.081Z,50.40
2018-07-05T04:09:45.335Z,50.60
2018-07-05T04:10:30.021Z,50.90
2018-07-05T04:11:14.879Z,51.50
2018-07-05T04:12:00.132Z,52.00
2018-07-05T04:12:44.869Z,52.10
2018-07-05T04:13:29.452Z,52.60
2018-07-05T04:14:14.142Z,52.80
2018-07-05T04:14:58.782Z,53.20
2018-07-05T04:16:22.316Z,53.20
2018-07-05T04:17:45.942Z,53.50
2018-07-05T04:18:30.619Z,53.60
2018-07-05T04:19:15.354Z,53.80
2018-07-05T04:19:59.880Z,53.90
2018-07-05T04:20:44.709Z,53.90
2018-07-05T04:21:29.424Z,54.00
2018-07-05T04:22:14.152Z,54.30
2018-07-05T04:22:58.768Z,54.40
2018-07-05T04:23:43.390Z,54.40
2018-07-05T04:24:28.057Z,54.40
2018-07-05T04:25:13.224Z,54.20
2018-07-05T04:25:58.365Z,54.10
2018-07-05T04:26:43.364Z,54.10
2018-07-05T04:27:28.100Z,54.10
2018-07-05T04:28:12.898Z,53.90
2018-07-05T04:28:57.530Z,54.00
2018-07-05T04:29:42.200Z,54.00
2018-07-05T04:30:27.066Z,54.70
2018-07-05T04:31:11.593Z,53.90
2018-07-05T04:31:56.218Z,53.70
2018-07-05T04:32:41.086Z,53.30
2018-07-05T04:33:25.759Z,52.90
2018-07-05T04:34:10.334Z,52.90
2018-07-05T04:34:54.958Z,52.70
2018-07-05T04:35:39.679Z,52.90
2018-07-05T04:36:24.284Z,53.10
2018-07-05T04:37:09.248Z,53.20
2018-07-05T04:37:54.075Z,53.20
2018-07-05T04:38:38.743Z,53.30
2018-07-05T04:39:24.190Z,53.30
2018-07-05T04:40:08.795Z,53.40
2018-07-05T04:40:53.380Z,53.70
2018-07-05T04:41:38.320Z,54.00
2018-07-05T04:42:23.017Z,53.90
2018-07-05T04:43:07.658Z,54.10
2018-07-05T04:43:52.706Z,54.30
2018-07-05T04:44:37.386Z,54.50
2018-07-05T04:45:21.944Z,54.50
2018-07-05T04:46:06.689Z,54.50
2018-07-05T04:46:51.354Z,54.40
2018-07-05T04:47:35.917Z,54.40
2018-07-05T04:48:20.532Z,54.10
2018-07-05T04:49:44.027Z,53.80
2018-07-05T04:50:28.641Z,53.70
2018-07-05T04:51:13.435Z,53.70
2018-07-05T04:51:58.253Z,53.30
2018-07-05T04:52:43.022Z,53.20
2018-07-05T04:53:27.609Z,53.00
2018-07-05T04:54:12.260Z,52.90
2018-07-05T04:54:56.769Z,52.90
2018-07-05T04:55:42.116Z,52.90
2018-07-05T04:56:26.780Z,52.90
2018-07-05T04:57:11.628Z,53.00
2018-07-05T04:57:56.260Z,53.10
2018-07-05T04:58:42.020Z,53.30
2018-07-05T04:59:26.734Z,51.90
2018-07-05T05:00:11.582Z,53.10
2018-07-05T05:00:56.232Z,53.10
2018-07-05T05:02:19.690Z,52.70
2018-07-05T05:03:04.591Z,52.20
2018-07-05T05:03:49.286Z,52.10
2018-07-05T05:04:33.958Z,51.70
2018-07-05T05:05:18.779Z,51.90
2018-07-05T05:06:03.349Z,51.80
2018-07-05T05:06:47.996Z,51.50
2018-07-05T05:08:11.435Z,51.20
2018-07-05T05:08:55.959Z,51.10
2018-07-05T05:09:40.696Z,51.20
2018-07-05T05:10:25.542Z,51.20
2018-07-05T05:11:10.327Z,51.10
2018-07-05T05:12:33.913Z,51.00
2018-07-05T05:13:19.185Z,51.00
2018-07-05T05:14:04.659Z,50.90
2018-07-05T05:14:49.229Z,51.00
2018-07-05T05:15:33.884Z,50.80
2018-07-05T05:16:18.412Z,50.70
2018-07-05T05:17:03.281Z,50.70
2018-07-05T05:17:48.050Z,50.70
2018-07-05T05:18:32.961Z,50.70
2018-07-05T05:19:18.337Z,50.90
2018-07-05T05:20:02.911Z,50.90
2018-07-05T05:20:48.336Z,50.80
2018-07-05T05:21:33.057Z,50.90
2018-07-05T05:22:18.310Z,50.90
2018-07-05T05:23:02.807Z,50.80
2018-07-05T05:23:47.526Z,50.90
2018-07-05T05:24:32.085Z,51.00
2018-07-05T05:25:16.849Z,51.10
2018-07-05T05:26:01.437Z,51.10
2018-07-05T05:26:46.325Z,51.10
2018-07-05T05:27:30.996Z,51.00
2018-07-05T05:28:15.635Z,51.00
2018-07-05T05:29:00.216Z,51.10
2018-07-05T05:29:45.592Z,51.10
2018-07-05T05:30:30.929Z,51.20
2018-07-05T05:31:15.486Z,51.30
2018-07-05T05:32:00.256Z,51.20
2018-07-05T05:32:44.807Z,51.30
2018-07-05T05:33:29.409Z,51.20
2018-07-05T05:34:14.617Z,51.10
2018-07-05T05:35:00.239Z,51.10
2018-07-05T05:35:45.031Z,51.10
2018-07-05T05:36:29.823Z,51.10
2018-07-05T05:37:14.801Z,51.20
2018-07-05T05:37:59.556Z,51.20
2018-07-05T05:38:44.561Z,51.30
2018-07-05T05:39:29.922Z,51.40
2018-07-05T05:40:15.245Z,51.30
2018-07-05T05:41:00.136Z,51.60
2018-07-05T05:41:44.881Z,52.40
2018-07-05T05:42:30.229Z,51.70
2018-07-05T05:43:14.834Z,51.70
2018-07-05T05:43:59.654Z,51.60
2018-07-05T05:44:44.421Z,51.70
2018-07-05T05:45:30.485Z,51.80
2018-07-05T05:46:15.921Z,51.80
2018-07-05T05:47:01.407Z,51.70
2018-07-05T05:47:46.451Z,51.70
2018-07-05T05:48:32.271Z,52.60
2018-07-05T05:49:17.053Z,51.90
2018-07-05T05:50:01.860Z,51.90
2018-07-05T05:50:46.597Z,51.70
2018-07-05T05:51:32.032Z,51.80
2018-07-05T05:52:16.833Z,51.40
2018-07-05T05:53:01.409Z,51.70
2018-07-05T05:53:46.207Z,52.10
2018-07-05T05:54:30.853Z,52.40
2018-07-05T05:55:15.790Z,52.40
2018-07-05T05:56:00.329Z,52.20
2018-07-05T05:57:24.104Z,52.40
2018-07-05T05:58:09.607Z,52.50
2018-07-05T05:58:54.313Z,52.40
2018-07-05T05:59:38.921Z,52.40
2018-07-05T06:00:23.709Z,52.50
2018-07-05T06:01:08.303Z,52.50
2018-07-05T06:01:53.259Z,52.50
2018-07-05T06:02:37.948Z,52.50
2018-07-05T06:03:22.561Z,52.60
2018-07-05T06:04:07.208Z,52.60
2018-07-05T06:04:51.952Z,52.70
2018-07-05T06:05:36.518Z,53.00
2018-07-05T06:06:21.187Z,53.00
2018-07-05T06:07:44.724Z,53.20
2018-07-05T06:08:29.267Z,53.40
2018-07-05T06:09:13.951Z,53.40
2018-07-05T06:09:58.792Z,53.40
2018-07-05T06:10:43.460Z,53.40
2018-07-05T06:11:28.037Z,53.50
2018-07-05T06:12:12.708Z,53.30
2018-07-05T06:12:57.828Z,53.20
2018-07-05T06:13:43.095Z,53.20
2018-07-05T06:14:27.631Z,53.20
2018-07-05T06:15:12.213Z,53.20
2018-07-05T06:15:56.985Z,53.30
2018-07-05T06:16:42.811Z,53.40
2018-07-05T06:17:27.481Z,53.50
2018-07-05T06:18:12.182Z,53.30
2018-07-05T06:18:57.029Z,53.50
2018-07-05T06:19:42.246Z,53.50
2018-07-05T06:20:27.162Z,53.40
2018-07-05T06:21:12.673Z,53.10
2018-07-05T06:21:57.284Z,52.80
2018-07-05T06:22:42.667Z,52.90
2018-07-05T06:23:27.911Z,52.70
2018-07-05T06:24:12.523Z,52.80
2018-07-05T06:24:57.057Z,53.00
2018-07-05T06:25:41.788Z,53.00
2018-07-05T06:26:26.363Z,53.10
2018-07-05T06:27:11.805Z,53.20
2018-07-05T06:27:56.352Z,52.90
2018-07-05T06:29:20.775Z,53.60
2018-07-05T06:30:05.681Z,53.70
2018-07-05T06:30:50.419Z,54.00
2018-07-05T06:31:35.087Z,54.30
2018-07-05T06:32:19.951Z,54.70
2018-07-05T06:33:04.650Z,54.70
2018-07-05T06:33:49.631Z,54.60
2018-07-05T06:35:52.483Z,55.60
2018-07-05T06:36:37.067Z,55.50
2018-07-05T06:37:21.646Z,55.30
2018-07-05T06:38:06.293Z,55.50
2018-07-05T06:38:51.416Z,55.70
2018-07-05T06:39:36.046Z,55.40
2018-07-05T06:40:20.748Z,55.30
2018-07-05T06:41:05.504Z,55.20
2018-07-05T06:41:50.403Z,55.10
2018-07-05T06:43:13.859Z,55.40
2018-07-05T06:43:58.440Z,55.60
2018-07-05T06:44:43.259Z,55.60
2018-07-05T06:45:28.044Z,56.00
2018-07-05T06:46:12.845Z,55.60
2018-07-05T06:46:57.656Z,55.50
2018-07-05T06:47:42.342Z,55.50
2018-07-05T06:48:27.030Z,55.70
2018-07-05T06:49:11.769Z,55.60
2018-07-05T06:49:56.493Z,56.50
2018-07-05T06:50:42.024Z,56.70
2018-07-05T06:51:26.772Z,55.90
2018-07-05T06:52:11.568Z,55.90
2018-07-05T06:52:56.388Z,55.50
2018-07-05T06:53:41.175Z,55.40
2018-07-05T06:54:25.996Z,55.60
2018-07-05T06:55:10.877Z,55.80
2018-07-05T06:55:55.664Z,55.80
2018-07-05T06:56:40.207Z,55.70
2018-07-05T06:57:24.873Z,55.60
2018-07-05T06:58:09.471Z,55.70
2018-07-05T06:58:54.112Z,55.80
2018-07-05T06:59:38.709Z,56.00
2018-07-05T07:00:23.459Z,56.20
2018-07-05T07:01:08.090Z,56.00
2018-07-05T07:01:53.528Z,55.70
2018-07-05T07:02:38.126Z,55.60
2018-07-05T07:03:22.759Z,55.70
2018-07-05T07:04:07.397Z,56.30
2018-07-05T07:04:52.174Z,56.00
2018-07-05T07:05:36.951Z,55.90
2018-07-05T07:06:21.476Z,55.90
2018-07-05T07:07:06.067Z,56.80
2018-07-05T07:07:50.661Z,55.60
2018-07-05T07:08:35.401Z,55.40
2018-07-05T07:09:20.029Z,55.90
2018-07-05T07:10:04.789Z,56.20
2018-07-05T07:10:49.436Z,56.20
2018-07-05T07:11:34.288Z,56.30
2018-07-05T07:12:19.011Z,56.30
2018-07-05T07:13:03.682Z,56.20
2018-07-05T07:13:48.312Z,56.30
2018-07-05T07:14:33.067Z,56.30
2018-07-05T07:15:17.944Z,56.30
2018-07-05T07:16:02.751Z,56.40
2018-07-05T07:16:47.403Z,56.40
2018-07-05T07:17:31.999Z,56.00
2018-07-05T07:18:16.800Z,55.80
2018-07-05T07:19:01.530Z,55.60
2018-07-05T07:19:46.227Z,55.60
2018-07-05T07:20:30.815Z,55.70
2018-07-05T07:21:15.488Z,55.80
2018-07-05T07:22:00.436Z,55.80
2018-07-05T07:22:45.186Z,55.60
2018-07-05T07:23:30.184Z,55.60
2018-07-05T07:24:15.076Z,55.70
2018-07-05T07:24:59.646Z,55.70
2018-07-05T07:25:44.292Z,55.90
2018-07-05T07:26:28.886Z,56.20
2018-07-05T07:27:13.709Z,56.20
2018-07-05T07:27:58.498Z,56.20
2018-07-05T07:28:43.177Z,56.00
2018-07-05T07:29:27.782Z,56.20
2018-07-05T07:30:12.705Z,56.50
2018-07-05T07:30:57.480Z,56.60
2018-07-05T07:31:42.378Z,56.40
2018-07-05T07:32:27.115Z,56.50
2018-07-05T07:33:12.268Z,56.50
2018-07-05T07:33:56.867Z,56.60
2018-07-05T07:34:42.082Z,56.60
2018-07-05T07:35:26.740Z,56.60
2018-07-05T07:36:11.437Z,56.60
2018-07-05T07:36:56.118Z,56.60
2018-07-05T07:37:41.152Z,56.60
2018-07-05T07:38:25.762Z,56.60
2018-07-05T07:39:10.466Z,56.70
2018-07-05T07:40:34.081Z,56.70
2018-07-05T07:41:18.793Z,56.50
2018-07-05T07:41:51.821Z,56.50
2018-07-05T07:42:24.216Z,56.30
2018-07-05T07:42:56.580Z,56.40
2018-07-05T07:43:28.943Z,56.40
2018-07-05T07:44:01.330Z,56.50
2018-07-05T07:44:33.716Z,56.30
2018-07-05T07:45:06.136Z,56.30
2018-07-05T07:45:38.540Z,56.30
2018-07-05T07:46:10.948Z,56.20
2018-07-05T07:46:43.591Z,56.20
2018-07-05T07:47:15.987Z,56.30
2018-07-05T07:47:48.353Z,56.20
2018-07-05T07:48:20.751Z,56.40
2018-07-05T07:48:53.154Z,56.40
2018-07-05T07:49:26.247Z,56.50
2018-07-05T07:49:58.639Z,56.40
2018-07-05T07:50:31.037Z,56.20
2018-07-05T07:51:03.429Z,56.30
2018-07-05T07:51:35.806Z,56.10
2018-07-05T07:52:08.215Z,56.10
2018-07-05T07:52:40.575Z,56.10
2018-07-05T07:53:13.085Z,56.10
2018-07-05T07:53:45.527Z,56.00
2018-07-05T07:54:17.925Z,56.10
2018-07-05T07:54:50.352Z,56.20
2018-07-05T07:55:22.744Z,56.20
2018-07-05T07:55:55.173Z,56.30
2018-07-05T07:56:28.209Z,56.30
2018-07-05T07:57:00.601Z,56.40
2018-07-05T07:57:32.971Z,56.30
2018-07-05T07:58:05.494Z,56.10
2018-07-05T07:58:37.918Z,56.20
2018-07-05T07:59:10.569Z,56.20
2018-07-05T07:59:42.978Z,55.90
2018-07-05T08:00:15.389Z,55.80
2018-07-05T08:00:47.772Z,55.60
2018-07-05T08:01:20.160Z,55.60
2018-07-05T08:01:52.539Z,55.40
2018-07-05T08:02:25.032Z,55.60
2018-07-05T08:02:57.404Z,55.40
2018-07-05T08:03:29.807Z,55.10
2018-07-05T08:04:02.176Z,55.10
2018-07-05T08:04:34.640Z,54.90
2018-07-05T08:05:07.050Z,54.70
2018-07-05T08:05:39.431Z,54.80
2018-07-05T08:06:12.241Z,54.70
2018-07-05T08:06:44.640Z,54.90
2018-07-05T08:07:17.058Z,54.50
2018-07-05T08:07:49.529Z,54.40
2018-07-05T08:08:22.481Z,54.40
2018-07-05T08:08:54.852Z,54.40
2018-07-05T08:09:27.292Z,54.30
2018-07-05T08:09:59.689Z,54.30
2018-07-05T08:10:32.081Z,54.40
2018-07-05T08:11:38.459Z,54.70
2018-07-05T08:12:10.945Z,54.30
2018-07-05T08:12:43.386Z,54.40
2018-07-05T08:13:15.776Z,54.30
2018-07-05T08:13:48.204Z,54.10
2018-07-05T08:14:20.578Z,54.20
2018-07-05T08:14:52.961Z,54.10
2018-07-05T08:15:25.339Z,54.20
2018-07-05T08:15:57.741Z,54.20
2018-07-05T08:16:30.113Z,54.30
2018-07-05T08:17:02.476Z,54.70
2018-07-05T08:17:34.907Z,54.60
2018-07-05T08:18:07.508Z,54.70
2018-07-05T08:18:39.941Z,54.90
2018-07-05T08:19:12.339Z,54.90
2018-07-05T08:19:45.123Z,54.90
2018-07-05T08:20:17.884Z,54.90
2018-07-05T08:20:50.615Z,54.80
2018-07-05T08:21:23.029Z,54.80
2018-07-05T08:21:56.220Z,54.80
2018-07-05T08:22:28.638Z,54.80
2018-07-05T08:23:01.087Z,54.60
2018-07-05T08:23:33.511Z,54.60
2018-07-05T08:24:05.884Z,54.30
2018-07-05T08:25:11.852Z,54.90
2018-07-05T08:25:44.373Z,54.40
2018-07-05T08:26:17.417Z,54.30
2018-07-05T08:26:49.847Z,54.40
2018-07-05T08:27:22.284Z,54.50
2018-07-05T08:27:54.668Z,54.40
2018-07-05T08:28:27.098Z,54.10
2018-07-05T08:28:59.514Z,54.10
2018-07-05T08:29:31.911Z,54.00
2018-07-05T08:30:04.311Z,54.00
2018-07-05T08:30:37.198Z,54.10
2018-07-05T08:31:09.572Z,54.10
2018-07-05T08:31:41.981Z,54.20
2018-07-05T08:32:14.428Z,54.20
2018-07-05T08:32:46.827Z,54.20
2018-07-05T08:33:19.178Z,54.00
2018-07-05T08:33:51.665Z,54.10
2018-07-05T08:34:24.042Z,54.20
2018-07-05T08:34:56.404Z,54.20
2018-07-05T08:35:29.557Z,53.90
2018-07-05T08:36:01.956Z,53.90
2018-07-05T08:36:34.372Z,53.90
2018-07-05T08:37:06.728Z,53.90
2018-07-05T08:37:39.102Z,53.90
2018-07-05T08:38:12.182Z,54.10
2018-07-05T08:38:45.090Z,54.20
2018-07-05T08:39:17.579Z,54.10
2018-07-05T08:39:49.945Z,54.00
2018-07-05T08:40:22.424Z,54.00
2018-07-05T08:40:55.524Z,54.00
2018-07-05T08:41:27.941Z,54.20
2018-07-05T08:42:00.317Z,54.10
2018-07-05T08:42:32.693Z,54.30
2018-07-05T08:43:05.075Z,54.20
2018-07-05T08:43:37.515Z,54.30
2018-07-05T08:44:11.216Z,54.30
2018-07-05T08:44:43.603Z,54.20
2018-07-05T08:45:16.222Z,54.30
2018-07-05T08:45:48.593Z,54.20
2018-07-05T08:46:20.988Z,54.20
2018-07-05T08:46:53.356Z,54.20
2018-07-05T08:47:26.207Z,54.10
2018-07-05T08:47:58.605Z,53.90
2018-07-05T08:48:31.045Z,54.00
2018-07-05T08:49:03.435Z,53.90
2018-07-05T08:49:35.895Z,53.90
2018-07-05T08:50:08.289Z,53.90
2018-07-05T08:50:40.695Z,54.60
2018-07-05T08:51:13.154Z,54.10
2018-07-05T08:51:46.142Z,54.10
2018-07-05T08:52:18.520Z,54.10
2018-07-05T08:52:50.962Z,54.10
2018-07-05T08:53:24.147Z,54.20
2018-07-05T08:53:57.121Z,54.10
2018-07-05T08:54:29.824Z,54.10
2018-07-05T08:55:02.248Z,54.20
2018-07-05T08:55:34.684Z,54.10
2018-07-05T08:56:07.059Z,54.00
2018-07-05T08:56:39.432Z,54.00
2018-07-05T08:57:11.857Z,54.10
2018-07-05T08:57:44.284Z,53.90
2018-07-05T08:58:16.710Z,53.80
2018-07-05T08:58:49.255Z,53.90
2018-07-05T08:59:22.757Z,53.90
2018-07-05T08:59:55.167Z,53.90
2018-07-05T09:00:27.555Z,53.80
2018-07-05T09:00:59.986Z,53.70
2018-07-05T09:01:32.359Z,53.60
2018-07-05T09:02:04.775Z,54.40
2018-07-05T09:02:37.780Z,54.60
2018-07-05T09:03:10.917Z,53.80
2018-07-05T09:03:43.316Z,53.70
2018-07-05T09:04:15.703Z,53.70
2018-07-05T09:04:48.079Z,53.40
2018-07-05T09:05:20.738Z,53.20
2018-07-05T09:05:53.176Z,52.90
2018-07-05T09:06:25.546Z,52.90
2018-07-05T09:07:30.696Z,51.90
2018-07-05T09:08:03.119Z,51.90
2018-07-05T09:08:35.555Z,52.10
2018-07-05T09:09:08.017Z,52.00
2018-07-05T09:09:40.751Z,51.90
2018-07-05T09:10:13.885Z,51.90
2018-07-05T09:10:47.086Z,51.80
2018-07-05T09:11:19.520Z,51.40
2018-07-05T09:11:52.498Z,51.30
2018-07-05T09:12:25.328Z,51.30
2018-07-05T09:12:58.565Z,51.30
2018-07-05T09:13:31.006Z,51.60
2018-07-05T09:14:03.485Z,51.60
2018-07-05T09:14:36.264Z,51.50
2018-07-05T09:15:08.748Z,51.60
2018-07-05T09:15:41.887Z,51.60
2018-07-05T09:16:15.277Z,51.00
2018-07-05T09:16:47.788Z,51.00
2018-07-05T09:17:20.308Z,51.10
2018-07-05T09:17:52.904Z,51.30
2018-07-05T09:18:25.841Z,51.20
2018-07-05T09:18:58.245Z,50.50
2018-07-05T09:19:30.656Z,50.20
2018-07-05T09:20:03.067Z,50.20
2018-07-05T09:20:35.424Z,50.10
2018-07-05T09:21:07.835Z,50.10
2018-07-05T09:21:40.201Z,50.10